Fedora — SLKU — position and weather

sailwx.info

Track history (hours):
 
Tides and Currents Weather Stations Pressure Air Temp Water Temp Dewpoint Dewpoint Depression Visibility Wind Speed Wind Dir Waves Ship Positions

Fedora

Last reported at 2016-Apr-21 14:24 UTC. Time now 2016-May-01 17:30 UTC.
Position N 48°00' W 125°59'.
Warning: this ship's position is 10 days out of date.

Length 228 m; draft 9.8 m.

Type: Cargo ship. MMSI: 266259000.

Date/timePositionNaut miles runAvg speedWind from/ knotsBaromVisibWave heightAir tempDewpointWater temp
2016-Apr-21 14:24N 48°00' W 125°59'1615.5
2016-Apr-21 13:24N 48°09' W 125°40'1315.1
2016-Apr-21 12:32N 48°17' W 125°25'1614.8
2016-Apr-21 11:26N 48°27' W 125°05'2714.5
2016-Apr-21 09:33N 48°25' W 124°24'1616.4
2016-Apr-21 08:34N 48°19' W 124°01'1615.5
2016-Apr-21 07:32N 48°16' W 123°38'1313.0
2016-Apr-21 06:33N 48°08' W 123°22'1616.0
2016-Apr-21 05:33N 48°12' W 122°59'1717.0
2016-Apr-21 04:33N 48°03' W 122°38'1817.8
2016-Apr-21 03:33N 47°47' W 122°26'1817.6
2016-Apr-21 02:33N 47°29' W 122°25'1212.3
2016-Apr-21 01:33N 47°17' W 122°25'2 1.7
2016-Apr-21 00:25N 47°16' W 122°23'0 0.0
2016-Apr-20 23:31N 47°16' W 122°23'0 0.0
2016-Apr-20 22:31N 47°16' W 122°23'0 0.0
2016-Apr-20 12:26N 47°16' W 122°23'1 1.5
2016-Apr-20 11:33N 47°16' W 122°24'6 6.0
2016-Apr-20 10:33N 47°22' W 122°23'1616.1
2016-Apr-20 09:33N 47°38' W 122°28'1817.6
2016-Apr-20 08:34N 47°56' W 122°31'1818.0
2016-Apr-20 07:33N 48°10' W 122°47'1717.6
2016-Apr-20 06:33N 48°11' W 123°13'1111.5
2016-Apr-20 05:34N 48°12' W 123°30'1414.0
2016-Apr-20 04:34N 48°14' W 123°51'1413.8
2016-Apr-20 03:33N 48°18' W 124°11'1413.6
2016-Apr-20 02:30N 48°24' W 124°30'1313.5
2016-Apr-20 01:33N 48°28' W 124°48'1414.2
2016-Apr-20 00:33N 48°29' W 125°10'1514.9
2016-Apr-19 23:33N 48°32' W 125°32'1514.8
2016-Apr-19 22:32N 48°36' W 125°53'1514.9
2016-Apr-19 21:33N 48°40' W 126°15'1514.8
2016-Apr-19 20:33N 48°45' W 126°36'1514.9
2016-Apr-19 19:33N 48°49' W 126°58'1514.9
2016-Apr-19 18:33N 48°54' W 127°20'3014.8
2016-Apr-19 16:33N 49°02' W 128°03'1514.7
2016-Apr-19 15:33N 49°07' W 128°24'  
Track history (hours):
 
Tides and Currents Weather Stations Pressure Air Temp Water Temp Dewpoint Dewpoint Depression Visibility Wind Speed Wind Dir Waves Ship Positions

Fedora

Last reported at 2016-Apr-21 14:24 UTC. Time now 2016-May-01 17:30 UTC.
Position N 48°00' W 125°59'.
Warning: this ship's position is 10 days out of date.

Length 228 m; draft 9.8 m.

Type: Cargo ship. MMSI: 266259000.

Date/timePositionNaut miles runAvg speedWind from/ knotsBaromVisibWave heightAir tempDewpointWater temp
2016-Apr-21 14:24N 48°00' W 125°59'1615.5
2016-Apr-21 13:24N 48°09' W 125°40'1315.1
2016-Apr-21 12:32N 48°17' W 125°25'1614.8
2016-Apr-21 11:26N 48°27' W 125°05'2714.5
2016-Apr-21 09:33N 48°25' W 124°24'1616.4
2016-Apr-21 08:34N 48°19' W 124°01'1615.5
2016-Apr-21 07:32N 48°16' W 123°38'1313.0
2016-Apr-21 06:33N 48°08' W 123°22'1616.0
2016-Apr-21 05:33N 48°12' W 122°59'1717.0
2016-Apr-21 04:33N 48°03' W 122°38'1817.8
2016-Apr-21 03:33N 47°47' W 122°26'1817.6
2016-Apr-21 02:33N 47°29' W 122°25'1212.3
2016-Apr-21 01:33N 47°17' W 122°25'2 1.7
2016-Apr-21 00:25N 47°16' W 122°23'0 0.0
2016-Apr-20 23:31N 47°16' W 122°23'0 0.0
2016-Apr-20 22:31N 47°16' W 122°23'0 0.0
2016-Apr-20 12:26N 47°16' W 122°23'1 1.5
2016-Apr-20 11:33N 47°16' W 122°24'6 6.0
2016-Apr-20 10:33N 47°22' W 122°23'1616.1
2016-Apr-20 09:33N 47°38' W 122°28'1817.6
2016-Apr-20 08:34N 47°56' W 122°31'1818.0
2016-Apr-20 07:33N 48°10' W 122°47'1717.6
2016-Apr-20 06:33N 48°11' W 123°13'1111.5
2016-Apr-20 05:34N 48°12' W 123°30'1414.0
2016-Apr-20 04:34N 48°14' W 123°51'1413.8
2016-Apr-20 03:33N 48°18' W 124°11'1413.6
2016-Apr-20 02:30N 48°24' W 124°30'1313.5
2016-Apr-20 01:33N 48°28' W 124°48'1414.2
2016-Apr-20 00:33N 48°29' W 125°10'1514.9
2016-Apr-19 23:33N 48°32' W 125°32'1514.8
2016-Apr-19 22:32N 48°36' W 125°53'1514.9
2016-Apr-19 21:33N 48°40' W 126°15'1514.8
2016-Apr-19 20:33N 48°45' W 126°36'1514.9
2016-Apr-19 19:33N 48°49' W 126°58'1514.9
2016-Apr-19 18:33N 48°54' W 127°20'3014.8
2016-Apr-19 16:33N 49°02' W 128°03'1514.7
2016-Apr-19 15:33N 49°07' W 128°24'  

Dump ship's entire track history